sensor_id;sensor_type;location;lat;lon;timestamp;pressure;altitude;pressure_sealevel;temperature;humidity
43161;BME280;40968;52.342;5.528;2022-09-04T00:01:15;101416.59;;;23.22;41.77
43161;BME280;40968;52.342;5.528;2022-09-04T00:03:49;101421.38;;;23.20;41.48
43161;BME280;40968;52.342;5.528;2022-09-04T00:06:24;101362.78;;;22.76;41.54
43161;BME280;40968;52.342;5.528;2022-09-04T00:09:02;101397.69;;;22.89;41.85
43161;BME280;40968;52.342;5.528;2022-09-04T00:11:39;101419.47;;;22.97;42.61
43161;BME280;40968;52.342;5.528;2022-09-04T00:14:13;101380.25;;;22.67;43.21
43161;BME280;40968;52.342;5.528;2022-09-04T00:16:45;101401.72;;;22.70;42.97
43161;BME280;40968;52.342;5.528;2022-09-04T00:19:15;101431.00;;;22.84;43.28
43161;BME280;40968;52.342;5.528;2022-09-04T00:21:49;101436.84;;;22.81;42.71
43161;BME280;40968;52.342;5.528;2022-09-04T00:24:22;101436.53;;;22.76;43.17
43161;BME280;40968;52.342;5.528;2022-09-04T00:26:52;101436.53;;;22.76;43.45
43161;BME280;40968;52.342;5.528;2022-09-04T00:29:28;101444.72;;;22.76;43.16
43161;BME280;40968;52.342;5.528;2022-09-04T00:32:01;101329.03;;;22.06;43.75
43161;BME280;40968;52.342;5.528;2022-09-04T00:34:46;101441.69;;;22.71;44.00
43161;BME280;40968;52.342;5.528;2022-09-04T00:37:18;101411.44;;;22.49;43.58
43161;BME280;40968;52.342;5.528;2022-09-04T00:39:54;101448.53;;;22.67;43.27
43161;BME280;40968;52.342;5.528;2022-09-04T00:42:35;101447.03;;;22.64;44.08
43161;BME280;40968;52.342;5.528;2022-09-04T00:45:14;101457.44;;;22.61;43.96
43161;BME280;40968;52.342;5.528;2022-09-04T00:48:04;101446.97;;;22.41;44.80
43161;BME280;40968;52.342;5.528;2022-09-04T00:54:01;101419.03;;;22.23;44.68
43161;BME280;40968;52.342;5.528;2022-09-04T01:00:05;101459.44;;;22.35;45.07
43161;BME280;40968;52.342;5.528;2022-09-04T01:02:45;101466.09;;;22.33;45.60
43161;BME280;40968;52.342;5.528;2022-09-04T01:05:24;101419.13;;;21.98;45.33
43161;BME280;40968;52.342;5.528;2022-09-04T01:08:03;101332.16;;;21.30;45.79
43161;BME280;40968;52.342;5.528;2022-09-04T01:10:44;101454.06;;;22.02;46.14
43161;BME280;40968;52.342;5.528;2022-09-04T01:13:18;101479.28;;;22.13;46.55
43161;BME280;40968;52.342;5.528;2022-09-04T01:15:53;101413.38;;;21.68;46.83
43161;BME280;40968;52.342;5.528;2022-09-04T01:18:29;101480.16;;;22.05;47.04
43161;BME280;40968;52.342;5.528;2022-09-04T01:21:23;101482.56;;;22.00;47.31
43161;BME280;40968;52.342;5.528;2022-09-04T01:24:17;101464.34;;;21.84;47.29
43161;BME280;40968;52.342;5.528;2022-09-04T01:26:54;101485.81;;;21.95;47.25
43161;BME280;40968;52.342;5.528;2022-09-04T01:29:27;101488.19;;;21.90;47.97
43161;BME280;40968;52.342;5.528;2022-09-04T01:32:04;101493.50;;;21.83;47.96
43161;BME280;40968;52.342;5.528;2022-09-04T01:34:41;101496.91;;;21.77;48.57
43161;BME280;40968;52.342;5.528;2022-09-04T01:37:29;101500.00;;;21.74;48.90
43161;BME280;40968;52.342;5.528;2022-09-04T01:40:14;101504.44;;;21.67;49.12
43161;BME280;40968;52.342;5.528;2022-09-04T01:42:48;101487.69;;;21.53;49.49
43161;BME280;40968;52.342;5.528;2022-09-04T01:45:24;101448.16;;;21.25;49.35
43161;BME280;40968;52.342;5.528;2022-09-04T01:47:58;101499.31;;;21.56;49.67
43161;BME280;40968;52.342;5.528;2022-09-04T01:50:28;101478.34;;;21.40;49.73
43161;BME280;40968;52.342;5.528;2022-09-04T01:53:02;101424.31;;;21.02;49.88
43161;BME280;40968;52.342;5.528;2022-09-04T01:55:34;101512.22;;;21.45;49.81
43161;BME280;40968;52.342;5.528;2022-09-04T01:58:13;101431.78;;;21.00;50.31
43161;BME280;40968;52.342;5.528;2022-09-04T02:00:48;101477.97;;;21.18;50.30
43161;BME280;40968;52.342;5.528;2022-09-04T02:03:23;101472.16;;;21.04;50.54
43161;BME280;40968;52.342;5.528;2022-09-04T02:05:59;101511.19;;;21.22;50.50
43161;BME280;40968;52.342;5.528;2022-09-04T02:08:59;101504.38;;;21.17;51.25
43161;BME280;40968;52.342;5.528;2022-09-04T02:11:35;101501.97;;;21.14;51.05
43161;BME280;40968;52.342;5.528;2022-09-04T02:14:15;101519.19;;;21.15;51.24
43161;BME280;40968;52.342;5.528;2022-09-04T02:16:52;101513.38;;;21.10;51.29
43161;BME280;40968;52.342;5.528;2022-09-04T02:19:33;101517.47;;;21.06;51.49
43161;BME280;40968;52.342;5.528;2022-09-04T02:22:08;101510.78;;;21.00;51.78
43161;BME280;40968;52.342;5.528;2022-09-04T02:24:46;101485.72;;;20.80;51.67
43161;BME280;40968;52.342;5.528;2022-09-04T02:27:19;101422.06;;;20.38;51.63
43161;BME280;40968;52.342;5.528;2022-09-04T02:29:59;101506.00;;;20.85;52.12
43161;BME280;40968;52.342;5.528;2022-09-04T02:32:32;101517.59;;;20.87;52.03
43161;BME280;40968;52.342;5.528;2022-09-04T02:35:06;101519.47;;;20.87;52.26
43161;BME280;40968;52.342;5.528;2022-09-04T02:37:45;101519.25;;;20.80;52.20
43161;BME280;40968;52.342;5.528;2022-09-04T02:40:19;101314.91;;;19.53;52.41
43161;BME280;40968;52.342;5.528;2022-09-04T02:43:07;101525.91;;;20.78;52.82
43161;BME280;40968;52.342;5.528;2022-09-04T02:45:44;101297.16;;;19.41;52.55
43161;BME280;40968;52.342;5.528;2022-09-04T02:48:16;101529.13;;;20.73;52.55
43161;BME280;40968;52.342;5.528;2022-09-04T02:51:00;101510.97;;;20.56;52.92
43161;BME280;40968;52.342;5.528;2022-09-04T02:53:31;101466.94;;;20.26;52.65
43161;BME280;40968;52.342;5.528;2022-09-04T02:56:15;101489.97;;;20.40;52.92
43161;BME280;40968;52.342;5.528;2022-09-04T02:58:53;101533.97;;;20.61;52.87
43161;BME280;40968;52.342;5.528;2022-09-04T03:01:29;101510.25;;;20.45;52.70
43161;BME280;40968;52.342;5.528;2022-09-04T03:04:02;101538.72;;;20.59;52.83
43161;BME280;40968;52.342;5.528;2022-09-04T03:06:44;101534.44;;;20.57;52.88
43161;BME280;40968;52.342;5.528;2022-09-04T03:09:18;101522.78;;;20.38;53.25
43161;BME280;40968;52.342;5.528;2022-09-04T03:11:51;101476.03;;;20.08;53.78
43161;BME280;40968;52.342;5.528;2022-09-04T03:14:22;101527.69;;;20.34;53.61
43161;BME280;40968;52.342;5.528;2022-09-04T03:17:04;101445.28;;;19.81;53.91
43161;BME280;40968;52.342;5.528;2022-09-04T03:19:37;101547.28;;;20.38;54.40
43161;BME280;40968;52.342;5.528;2022-09-04T03:22:13;101534.69;;;20.37;54.18
43161;BME280;40968;52.342;5.528;2022-09-04T03:24:59;101541.00;;;20.37;54.92
43161;BME280;40968;52.342;5.528;2022-09-04T03:27:30;101461.97;;;19.86;54.87
43161;BME280;40968;52.342;5.528;2022-09-04T03:30:01;101538.06;;;20.31;55.04
43161;BME280;40968;52.342;5.528;2022-09-04T03:32:34;101472.13;;;19.84;55.11
43161;BME280;40968;52.342;5.528;2022-09-04T03:35:11;101556.03;;;20.24;55.47
43161;BME280;40968;52.342;5.528;2022-09-04T03:37:51;101554.50;;;20.21;55.55
43161;BME280;40968;52.342;5.528;2022-09-04T03:40:32;101499.72;;;19.90;55.48
43161;BME280;40968;52.342;5.528;2022-09-04T03:43:11;101559.41;;;20.17;55.52
43161;BME280;40968;52.342;5.528;2022-09-04T03:45:42;101558.72;;;20.15;56.00
43161;BME280;40968;52.342;5.528;2022-09-04T03:48:25;101525.34;;;19.87;55.79
43161;BME280;40968;52.342;5.528;2022-09-04T03:50:57;101561.41;;;20.07;55.67
43161;BME280;40968;52.342;5.528;2022-09-04T03:53:30;101563.41;;;20.05;55.92
43161;BME280;40968;52.342;5.528;2022-09-04T03:56:13;101558.31;;;20.02;56.42
43161;BME280;40968;52.342;5.528;2022-09-04T03:58:50;101509.25;;;19.49;56.89
43161;BME280;40968;52.342;5.528;2022-09-04T04:01:28;101573.31;;;19.88;56.50
43161;BME280;40968;52.342;5.528;2022-09-04T04:06:57;101525.56;;;19.49;56.64
43161;BME280;40968;52.342;5.528;2022-09-04T04:09:41;101584.94;;;19.80;57.11
43161;BME280;40968;52.342;5.528;2022-09-04T04:12:30;101580.38;;;19.81;56.81
43161;BME280;40968;52.342;5.528;2022-09-04T04:15:08;101582.22;;;19.80;56.94
43161;BME280;40968;52.342;5.528;2022-09-04T04:17:52;101590.38;;;19.80;56.79
43161;BME280;40968;52.342;5.528;2022-09-04T04:20:30;101586.28;;;19.76;57.04
43161;BME280;40968;52.342;5.528;2022-09-04T04:23:37;101555.69;;;19.56;57.28
43161;BME280;40968;52.342;5.528;2022-09-04T04:26:15;101587.59;;;19.72;57.24
43161;BME280;40968;52.342;5.528;2022-09-04T04:28:58;101586.38;;;19.66;57.60
43161;BME280;40968;52.342;5.528;2022-09-04T04:31:39;101559.06;;;19.40;58.07
43161;BME280;40968;52.342;5.528;2022-09-04T04:34:15;101467.50;;;18.86;57.93
43161;BME280;40968;52.342;5.528;2022-09-04T04:36:53;101546.91;;;19.26;58.11
43161;BME280;40968;52.342;5.528;2022-09-04T04:39:26;101606.00;;;19.60;57.91
43161;BME280;40968;52.342;5.528;2022-09-04T04:42:04;101576.81;;;19.44;58.34
43161;BME280;40968;52.342;5.528;2022-09-04T04:44:47;101606.19;;;19.59;58.14
43161;BME280;40968;52.342;5.528;2022-09-04T04:47:48;101574.31;;;19.33;58.17
43161;BME280;40968;52.342;5.528;2022-09-04T04:50:21;101608.50;;;19.53;58.17
43161;BME280;40968;52.342;5.528;2022-09-04T04:52:58;101614.78;;;19.54;58.10
43161;BME280;40968;52.342;5.528;2022-09-04T04:55:41;101455.75;;;18.50;57.81
43161;BME280;40968;52.342;5.528;2022-09-04T04:58:42;101615.94;;;19.51;58.18
43161;BME280;40968;52.342;5.528;2022-09-04T05:01:26;101562.72;;;19.13;58.21
43161;BME280;40968;52.342;5.528;2022-09-04T05:04:05;101509.44;;;18.74;58.27
43161;BME280;40968;52.342;5.528;2022-09-04T05:06:38;101636.91;;;19.41;58.88
43161;BME280;40968;52.342;5.528;2022-09-04T05:09:15;101639.22;;;19.36;59.22
43161;BME280;40968;52.342;5.528;2022-09-04T05:11:51;101643.09;;;19.33;59.19
43161;BME280;40968;52.342;5.528;2022-09-04T05:14:27;101648.00;;;19.30;59.21
43161;BME280;40968;52.342;5.528;2022-09-04T05:17:05;101625.34;;;19.11;59.21
43161;BME280;40968;52.342;5.528;2022-09-04T05:19:40;101599.44;;;18.89;59.62
43161;BME280;40968;52.342;5.528;2022-09-04T05:22:16;101633.72;;;19.00;59.58
43161;BME280;40968;52.342;5.528;2022-09-04T05:24:56;101626.56;;;18.99;60.26
43161;BME280;40968;52.342;5.528;2022-09-04T05:27:37;101623.44;;;18.94;59.97
43161;BME280;40968;52.342;5.528;2022-09-04T05:30:09;101656.66;;;19.15;59.64
43161;BME280;40968;52.342;5.528;2022-09-04T05:32:38;101659.38;;;19.15;60.01
43161;BME280;40968;52.342;5.528;2022-09-04T05:35:12;101656.66;;;19.15;60.05
43161;BME280;40968;52.342;5.528;2022-09-04T05:37:47;101663.78;;;19.16;60.17
43161;BME280;40968;52.342;5.528;2022-09-04T05:40:26;101634.56;;;19.00;60.52
43161;BME280;40968;52.342;5.528;2022-09-04T05:43:05;101676.38;;;19.17;60.88
43161;BME280;40968;52.342;5.528;2022-09-04T05:45:47;101677.69;;;19.13;61.65
43161;BME280;40968;52.342;5.528;2022-09-04T05:48:21;101657.03;;;18.93;61.44
43161;BME280;40968;52.342;5.528;2022-09-04T05:51:07;101619.34;;;18.70;61.83
43161;BME280;40968;52.342;5.528;2022-09-04T05:54:13;101612.78;;;18.63;62.22
43161;BME280;40968;52.342;5.528;2022-09-04T05:56:58;101577.47;;;18.35;62.17
43161;BME280;40968;52.342;5.528;2022-09-04T06:00:01;101692.00;;;19.05;62.66
43161;BME280;40968;52.342;5.528;2022-09-04T06:08:36;101695.88;;;19.03;62.59
43161;BME280;40968;52.342;5.528;2022-09-04T06:11:39;101701.16;;;19.04;63.28
43161;BME280;40968;52.342;5.528;2022-09-04T06:14:22;101706.75;;;19.03;63.50
43161;BME280;40968;52.342;5.528;2022-09-04T06:17:15;101702.03;;;19.05;63.08
43161;BME280;40968;52.342;5.528;2022-09-04T06:20:06;101681.19;;;18.96;63.55
43161;BME280;40968;52.342;5.528;2022-09-04T06:22:56;101707.16;;;19.08;63.21
43161;BME280;40968;52.342;5.528;2022-09-04T06:25:41;101651.19;;;18.78;63.74
43161;BME280;40968;52.342;5.528;2022-09-04T06:28:36;101706.41;;;19.16;63.69
43161;BME280;40968;52.342;5.528;2022-09-04T06:31:26;101631.78;;;18.72;64.04
43161;BME280;40968;52.342;5.528;2022-09-04T06:33:59;101704.94;;;19.21;64.08
43161;BME280;40968;52.342;5.528;2022-09-04T06:36:43;101719.94;;;19.26;64.52
43161;BME280;40968;52.342;5.528;2022-09-04T06:39:33;101715.81;;;19.21;64.31
43161;BME280;40968;52.342;5.528;2022-09-04T06:42:17;101718.53;;;19.21;64.34
43161;BME280;40968;52.342;5.528;2022-09-04T06:47:51;101355.25;;;17.09;63.82
43161;BME280;40968;52.342;5.528;2022-09-04T06:50:28;101695.69;;;19.14;64.30
43161;BME280;40968;52.342;5.528;2022-09-04T06:53:12;101727.22;;;19.35;64.21
43161;BME280;40968;52.342;5.528;2022-09-04T06:55:48;101711.19;;;19.32;64.33
43161;BME280;40968;52.342;5.528;2022-09-04T06:58:35;101648.44;;;18.97;64.36
43161;BME280;40968;52.342;5.528;2022-09-04T07:01:09;101729.53;;;19.58;63.74
43161;BME280;40968;52.342;5.528;2022-09-04T07:03:55;101732.63;;;19.63;63.58
43161;BME280;40968;52.342;5.528;2022-09-04T07:06:36;101617.00;;;18.95;63.85
43161;BME280;40968;52.342;5.528;2022-09-04T07:09:10;101610.25;;;18.99;63.77
43161;BME280;40968;52.342;5.528;2022-09-04T07:11:52;101731.13;;;19.78;63.21
43161;BME280;40968;52.342;5.528;2022-09-04T07:14:38;101600.25;;;18.99;63.63
43161;BME280;40968;52.342;5.528;2022-09-04T07:17:14;101681.91;;;19.53;63.19
43161;BME280;40968;52.342;5.528;2022-09-04T07:22:45;101737.22;;;20.08;62.90
43161;BME280;40968;52.342;5.528;2022-09-04T07:25:18;101692.75;;;19.81;62.49
43161;BME280;40968;52.342;5.528;2022-09-04T07:28:00;101746.00;;;20.20;62.26
43161;BME280;40968;52.342;5.528;2022-09-04T07:30:35;101712.44;;;20.11;62.48
43161;BME280;40968;52.342;5.528;2022-09-04T07:33:11;101745.63;;;20.33;62.25
43161;BME280;40968;52.342;5.528;2022-09-04T07:35:49;101742.28;;;20.39;62.38
43161;BME280;40968;52.342;5.528;2022-09-04T07:38:27;101708.47;;;20.24;62.11
43161;BME280;40968;52.342;5.528;2022-09-04T07:41:01;101680.47;;;20.13;62.03
43161;BME280;40968;52.342;5.528;2022-09-04T07:43:36;101660.75;;;20.11;62.14
43161;BME280;40968;52.342;5.528;2022-09-04T07:46:15;101758.75;;;20.74;62.05
43161;BME280;40968;52.342;5.528;2022-09-04T07:48:49;101753.22;;;20.83;60.98
43161;BME280;40968;52.342;5.528;2022-09-04T07:51:22;101760.41;;;20.93;61.49
43161;BME280;40968;52.342;5.528;2022-09-04T07:54:06;101756.72;;;21.02;61.36
43161;BME280;40968;52.342;5.528;2022-09-04T07:56:56;101764.09;;;21.10;61.30
43161;BME280;40968;52.342;5.528;2022-09-04T07:59:34;101764.13;;;21.18;61.16
43161;BME280;40968;52.342;5.528;2022-09-04T08:05:12;101771.88;;;21.31;60.59
43161;BME280;40968;52.342;5.528;2022-09-04T08:07:59;101712.78;;;21.05;60.54
43161;BME280;40968;52.342;5.528;2022-09-04T08:10:33;101777.94;;;21.51;60.54
43161;BME280;40968;52.342;5.528;2022-09-04T08:13:10;101778.19;;;21.58;60.33
43161;BME280;40968;52.342;5.528;2022-09-04T08:15:47;101777.34;;;21.65;60.01
43161;BME280;40968;52.342;5.528;2022-09-04T08:21:14;101736.88;;;21.52;59.84
43161;BME280;40968;52.342;5.528;2022-09-04T08:24:08;101780.97;;;21.82;59.46
43161;BME280;40968;52.342;5.528;2022-09-04T08:26:46;101794.34;;;21.94;59.17
43161;BME280;40968;52.342;5.528;2022-09-04T08:29:27;101791.63;;;22.02;59.16
43161;BME280;40968;52.342;5.528;2022-09-04T08:32:06;101781.75;;;22.01;58.71
43161;BME280;40968;52.342;5.528;2022-09-04T08:35:04;101795.94;;;22.21;58.72
43161;BME280;40968;52.342;5.528;2022-09-04T08:37:42;101758.72;;;22.03;58.86
43161;BME280;40968;52.342;5.528;2022-09-04T08:40:57;101722.84;;;21.90;58.13
43161;BME280;40968;52.342;5.528;2022-09-04T08:43:38;101754.63;;;22.16;57.81
43161;BME280;40968;52.342;5.528;2022-09-04T08:46:41;101790.00;;;22.42;58.31
43161;BME280;40968;52.342;5.528;2022-09-04T08:55:49;101809.13;;;22.92;57.41
43161;BME280;40968;52.342;5.528;2022-09-04T08:58:48;101812.19;;;23.05;57.25
43161;BME280;40968;52.342;5.528;2022-09-04T09:01:40;101814.06;;;23.21;56.96
43161;BME280;40968;52.342;5.528;2022-09-04T09:04:31;101809.78;;;23.35;56.25
43161;BME280;40968;52.342;5.528;2022-09-04T09:07:23;101807.84;;;23.52;55.49
43161;BME280;40968;52.342;5.528;2022-09-04T09:10:35;101812.44;;;23.60;54.97
43161;BME280;40968;52.342;5.528;2022-09-04T09:16:18;101807.88;;;23.83;54.42
43161;BME280;40968;52.342;5.528;2022-09-04T09:19:05;101810.25;;;23.95;54.32
43161;BME280;40968;52.342;5.528;2022-09-04T09:21:41;101816.72;;;24.02;54.24
43161;BME280;40968;52.342;5.528;2022-09-04T09:24:33;101822.81;;;24.12;53.93
43161;BME280;40968;52.342;5.528;2022-09-04T09:27:23;101809.06;;;24.21;53.06
43161;BME280;40968;52.342;5.528;2022-09-04T09:30:04;101754.63;;;23.94;53.16
43161;BME280;40968;52.342;5.528;2022-09-04T09:33:06;101809.16;;;24.36;52.94
43161;BME280;40968;52.342;5.528;2022-09-04T09:36:27;101812.63;;;24.53;52.56
43161;BME280;40968;52.342;5.528;2022-09-04T09:39:33;101812.88;;;24.66;51.72
43161;BME280;40968;52.342;5.528;2022-09-04T09:42:18;101628.75;;;23.63;51.52
43161;BME280;40968;52.342;5.528;2022-09-04T09:45:15;101727.09;;;24.42;49.20
43161;BME280;40968;52.342;5.528;2022-09-04T09:48:09;101806.34;;;25.05;49.09
43161;BME280;40968;52.342;5.528;2022-09-04T09:51:01;101760.63;;;24.82;48.67
43161;BME280;40968;52.342;5.528;2022-09-04T09:53:51;101792.94;;;25.10;49.46
43161;BME280;40968;52.342;5.528;2022-09-04T09:57:04;101818.41;;;25.34;48.38
43161;BME280;40968;52.342;5.528;2022-09-04T10:00:05;101816.63;;;25.41;47.64
43161;BME280;40968;52.342;5.528;2022-09-04T10:02:59;101782.72;;;25.34;48.99
43161;BME280;40968;52.342;5.528;2022-09-04T10:06:11;101809.03;;;25.73;48.19
43161;BME280;40968;52.342;5.528;2022-09-04T10:09:01;101810.72;;;25.89;48.37
43161;BME280;40968;52.342;5.528;2022-09-04T10:11:54;101806.97;;;26.12;48.25
43161;BME280;40968;52.342;5.528;2022-09-04T10:14:42;101815.84;;;26.29;46.77
43161;BME280;40968;52.342;5.528;2022-09-04T10:17:43;101670.84;;;25.66;45.53
43161;BME280;40968;52.342;5.528;2022-09-04T10:20:34;101817.78;;;26.57;45.53
43161;BME280;40968;52.342;5.528;2022-09-04T10:23:28;101808.50;;;26.58;45.56
43161;BME280;40968;52.342;5.528;2022-09-04T10:29:21;101716.53;;;26.10;45.41
43161;BME280;40968;52.342;5.528;2022-09-04T10:35:16;101782.00;;;26.50;45.43
43161;BME280;40968;52.342;5.528;2022-09-04T10:38:05;101815.72;;;26.80;45.46
43161;BME280;40968;52.342;5.528;2022-09-04T10:40:47;101777.91;;;26.61;45.46
43161;BME280;40968;52.342;5.528;2022-09-04T10:43:35;101823.03;;;26.95;45.36
43161;BME280;40968;52.342;5.528;2022-09-04T10:46:07;101731.19;;;26.39;44.31
43161;BME280;40968;52.342;5.528;2022-09-04T10:49:16;101823.72;;;27.04;43.79
43161;BME280;40968;52.342;5.528;2022-09-04T10:55:01;101679.50;;;26.28;44.16
43161;BME280;40968;52.342;5.528;2022-09-04T10:57:56;101824.06;;;27.22;44.21
43161;BME280;40968;52.342;5.528;2022-09-04T11:00:34;101820.81;;;27.40;44.28
43161;BME280;40968;52.342;5.528;2022-09-04T11:03:29;101780.34;;;27.34;43.07
43161;BME280;40968;52.342;5.528;2022-09-04T11:06:27;101777.84;;;27.39;42.75
43161;BME280;40968;52.342;5.528;2022-09-04T11:09:15;101819.34;;;27.86;43.07
43161;BME280;40968;52.342;5.528;2022-09-04T11:11:57;101818.97;;;27.96;42.23
43161;BME280;40968;52.342;5.528;2022-09-04T11:17:46;101826.72;;;28.14;40.81
43161;BME280;40968;52.342;5.528;2022-09-04T11:20:53;101799.53;;;28.04;40.80
43161;BME280;40968;52.342;5.528;2022-09-04T11:24:15;101802.56;;;28.29;41.01
43161;BME280;40968;52.342;5.528;2022-09-04T11:27:21;101766.09;;;28.27;39.88
43161;BME280;40968;52.342;5.528;2022-09-04T11:30:03;101808.56;;;28.60;39.70
43161;BME280;40968;52.342;5.528;2022-09-04T11:39:11;101791.19;;;28.80;38.79
43161;BME280;40968;52.342;5.528;2022-09-04T11:42:09;101818.75;;;29.00;38.01
43161;BME280;40968;52.342;5.528;2022-09-04T11:48:24;101815.13;;;29.33;37.38
43161;BME280;40968;52.342;5.528;2022-09-04T11:54:10;101809.94;;;29.56;36.81
43161;BME280;40968;52.342;5.528;2022-09-04T11:56:49;101792.28;;;29.64;37.04
43161;BME280;40968;52.342;5.528;2022-09-04T11:59:44;101814.94;;;29.86;36.85
43161;BME280;40968;52.342;5.528;2022-09-04T12:02:30;101799.88;;;29.89;37.02
43161;BME280;40968;52.342;5.528;2022-09-04T12:05:16;101759.03;;;29.84;35.94
43161;BME280;40968;52.342;5.528;2022-09-04T12:08:01;101779.75;;;30.14;35.46
43161;BME280;40968;52.342;5.528;2022-09-04T12:10:52;101810.50;;;30.24;35.61
43161;BME280;40968;52.342;5.528;2022-09-04T12:13:48;101790.06;;;29.93;36.10
43161;BME280;40968;52.342;5.528;2022-09-04T12:16:45;101810.28;;;30.25;35.71
43161;BME280;40968;52.342;5.528;2022-09-04T12:19:37;101819.50;;;30.44;35.96
43161;BME280;40968;52.342;5.528;2022-09-04T12:22:13;101816.50;;;30.53;35.11
43161;BME280;40968;52.342;5.528;2022-09-04T12:24:57;101824.13;;;30.57;34.68
43161;BME280;40968;52.342;5.528;2022-09-04T12:27:58;101768.59;;;30.27;34.90
43161;BME280;40968;52.342;5.528;2022-09-04T12:30:35;101801.31;;;30.30;34.93
43161;BME280;40968;52.342;5.528;2022-09-04T12:33:32;101776.44;;;29.98;34.95
43161;BME280;40968;52.342;5.528;2022-09-04T12:36:38;101793.47;;;29.95;35.10
43161;BME280;40968;52.342;5.528;2022-09-04T12:39:24;101824.16;;;30.19;35.51
43161;BME280;40968;52.342;5.528;2022-09-04T12:41:59;101732.69;;;29.82;35.01
43161;BME280;40968;52.342;5.528;2022-09-04T12:44:35;101828.19;;;30.55;34.46
43161;BME280;40968;52.342;5.528;2022-09-04T12:47:13;101824.53;;;30.61;34.56
43161;BME280;40968;52.342;5.528;2022-09-04T12:50:13;101824.53;;;30.61;34.85
43161;BME280;40968;52.342;5.528;2022-09-04T12:52:55;101811.41;;;30.50;34.28
43161;BME280;40968;52.342;5.528;2022-09-04T12:55:33;101829.22;;;30.86;34.04
43161;BME280;40968;52.342;5.528;2022-09-04T12:58:11;101832.75;;;30.93;33.60
43161;BME280;40968;52.342;5.528;2022-09-04T13:00:46;101808.03;;;30.98;32.97
43161;BME280;40968;52.342;5.528;2022-09-04T13:03:23;101830.28;;;31.35;33.53
43161;BME280;40968;52.342;5.528;2022-09-04T13:06:08;101842.03;;;31.49;32.50
43161;BME280;40968;52.342;5.528;2022-09-04T13:08:48;101832.56;;;31.57;32.52
43161;BME280;40968;52.342;5.528;2022-09-04T13:11:29;101833.38;;;31.64;32.65
43161;BME280;40968;52.342;5.528;2022-09-04T13:14:15;101773.78;;;31.36;32.37
43161;BME280;40968;52.342;5.528;2022-09-04T13:16:53;101833.84;;;31.80;32.49
43161;BME280;40968;52.342;5.528;2022-09-04T13:19:25;101843.81;;;31.81;31.77
43161;BME280;40968;52.342;5.528;2022-09-04T13:22:10;101768.41;;;31.41;32.48
43161;BME280;40968;52.342;5.528;2022-09-04T13:24:49;101817.41;;;31.78;32.01
43161;BME280;40968;52.342;5.528;2022-09-04T13:27:28;101820.00;;;31.80;31.38
43161;BME280;40968;52.342;5.528;2022-09-04T13:30:04;101819.69;;;31.69;31.85
43161;BME280;40968;52.342;5.528;2022-09-04T13:32:57;101852.31;;;31.67;32.09
43161;BME280;40968;52.342;5.528;2022-09-04T13:35:42;101843.88;;;31.55;31.62
43161;BME280;40968;52.342;5.528;2022-09-04T13:38:32;101843.34;;;31.47;32.24
43161;BME280;40968;52.342;5.528;2022-09-04T13:41:24;101842.56;;;31.39;32.47
43161;BME280;40968;52.342;5.528;2022-09-04T13:44:07;101844.41;;;31.27;32.18
43161;BME280;40968;52.342;5.528;2022-09-04T13:46:42;101846.63;;;31.18;32.36
43161;BME280;40968;52.342;5.528;2022-09-04T13:49:14;101839.25;;;31.31;32.37
43161;BME280;40968;52.342;5.528;2022-09-04T13:51:45;101843.03;;;31.36;32.58
43161;BME280;40968;52.342;5.528;2022-09-04T13:54:16;101844.91;;;31.61;32.32
43161;BME280;40968;52.342;5.528;2022-09-04T13:56:53;101844.28;;;31.59;32.40
43161;BME280;40968;52.342;5.528;2022-09-04T13:59:23;101853.41;;;31.59;32.45
43161;BME280;40968;52.342;5.528;2022-09-04T14:01:52;101822.72;;;31.42;32.50
43161;BME280;40968;52.342;5.528;2022-09-04T14:04:26;101858.56;;;31.56;32.60
43161;BME280;40968;52.342;5.528;2022-09-04T14:06:56;101819.59;;;31.57;32.99
43161;BME280;40968;52.342;5.528;2022-09-04T14:09:28;101844.69;;;31.81;31.65
43161;BME280;40968;52.342;5.528;2022-09-04T14:12:21;101846.44;;;31.75;32.28
43161;BME280;40968;52.342;5.528;2022-09-04T14:15:29;101852.22;;;31.74;33.47
43161;BME280;40968;52.342;5.528;2022-09-04T14:18:06;101847.06;;;31.78;33.52
43161;BME280;40968;52.342;5.528;2022-09-04T14:20:44;101850.66;;;31.78;33.14
43161;BME280;40968;52.342;5.528;2022-09-04T14:23:21;101841.84;;;31.69;33.43
43161;BME280;40968;52.342;5.528;2022-09-04T14:25:55;101844.03;;;31.61;33.86
43161;BME280;40968;52.342;5.528;2022-09-04T14:28:29;101843.50;;;31.52;34.06
43161;BME280;40968;52.342;5.528;2022-09-04T14:31:08;101853.81;;;31.45;33.98
43161;BME280;40968;52.342;5.528;2022-09-04T14:33:43;101852.34;;;31.42;34.25
43161;BME280;40968;52.342;5.528;2022-09-04T14:36:21;101818.88;;;31.25;34.53
43161;BME280;40968;52.342;5.528;2022-09-04T14:39:04;101851.47;;;31.41;34.10
43161;BME280;40968;52.342;5.528;2022-09-04T14:41:49;101844.88;;;31.42;34.26
43161;BME280;40968;52.342;5.528;2022-09-04T14:44:28;101849.91;;;31.52;34.21
43161;BME280;40968;52.342;5.528;2022-09-04T14:47:06;101844.28;;;31.59;34.20
43161;BME280;40968;52.342;5.528;2022-09-04T14:49:40;101844.63;;;31.69;34.18
43161;BME280;40968;52.342;5.528;2022-09-04T14:52:12;101818.91;;;31.62;33.80
43161;BME280;40968;52.342;5.528;2022-09-04T14:54:40;101749.81;;;31.30;32.80
43161;BME280;40968;52.342;5.528;2022-09-04T14:57:13;101850.13;;;31.88;32.48
43161;BME280;40968;52.342;5.528;2022-09-04T14:59:46;101805.25;;;31.61;33.08
43161;BME280;40968;52.342;5.528;2022-09-04T15:02:23;101842.41;;;31.90;33.29
43161;BME280;40968;52.342;5.528;2022-09-04T15:04:58;101733.88;;;31.25;33.05
43161;BME280;40968;52.342;5.528;2022-09-04T15:07:47;101821.94;;;31.91;32.61
43161;BME280;40968;52.342;5.528;2022-09-04T15:10:20;101842.41;;;32.08;32.96